Don Torcuato, Argentina
Current Conditions -  °F | °C
As of 5:00 AM on Monday 26 Jan 2015 (Local Time) from SADF Reporting Station
Clear Clear  
Wind Chill: 75°   Ceiling: Unl
Heat Index: 75°   Visibility: 6mi
Dew Point: 64°   Wind: 2mph
Humidity: 69%   Direction: 50°NE
Pressure: 29.8"   Gusts: NA
Location:  34.5°S, 58.63°W
Report Text: SADF 260800Z 05002KT CAVOK 24/18 Q1009
Loading
Personal Weather Stations






























Interactive Weather Map New forecast layout! Learn more

10-Day Weather Forecast

Advertisements
Track Severe Weather on mobile